createdAt,value
2018-03-04T00:01:09.479Z,0
2018-03-04T00:02:24.105Z,0
2018-03-04T00:03:38.166Z,0
2018-03-04T00:05:07.722Z,0
2018-03-04T00:06:22.276Z,0
2018-03-04T00:07:37.054Z,0
2018-03-04T00:08:51.614Z,0
2018-03-04T00:10:06.656Z,0
2018-03-04T00:11:35.348Z,0
2018-03-04T00:12:49.427Z,0
2018-03-04T00:14:03.743Z,0
2018-03-04T00:15:18.135Z,0
2018-03-04T00:16:32.840Z,0
2018-03-04T00:17:47.171Z,0
2018-03-04T00:19:02.126Z,0
2018-03-04T00:20:16.276Z,0
2018-03-04T00:21:31.406Z,0
2018-03-04T00:22:45.059Z,0
2018-03-04T00:23:58.977Z,0
2018-03-04T00:25:12.594Z,0
2018-03-04T00:26:27.577Z,0
2018-03-04T00:27:41.770Z,0
2018-03-04T00:28:55.904Z,0
2018-03-04T00:30:10.664Z,0
2018-03-04T00:32:23.788Z,0
2018-03-04T00:33:38.154Z,0
2018-03-04T00:34:52.542Z,0
2018-03-04T00:36:21.773Z,0
2018-03-04T00:37:35.857Z,0
2018-03-04T00:38:50.498Z,0
2018-03-04T00:40:05.251Z,0
2018-03-04T00:41:19.857Z,0
2018-03-04T00:42:33.971Z,0
2018-03-04T00:43:48.822Z,0
2018-03-04T00:45:03.200Z,0
2018-03-04T00:46:18.341Z,0
2018-03-04T00:47:32.746Z,0
2018-03-04T00:48:47.285Z,0
2018-03-04T00:50:01.866Z,0
2018-03-04T00:51:16.743Z,0
2018-03-04T00:52:31.137Z,0
2018-03-04T00:53:45.775Z,0
2018-03-04T00:55:00.194Z,0
2018-03-04T00:56:14.568Z,0
2018-03-04T00:57:29.513Z,0
2018-03-04T00:58:43.757Z,0
2018-03-04T00:59:58.204Z,0
2018-03-04T01:01:12.840Z,0
2018-03-04T01:02:26.963Z,0
2018-03-04T01:03:41.377Z,0
2018-03-04T01:04:56.098Z,0
2018-03-04T01:06:10.293Z,0
2018-03-04T01:07:24.376Z,0
2018-03-04T01:08:39.252Z,0
2018-03-04T01:09:53.699Z,0
2018-03-04T01:11:08.272Z,0
2018-03-04T01:12:22.767Z,0
2018-03-04T01:13:37.402Z,0
2018-03-04T01:14:51.997Z,0
2018-03-04T01:16:06.916Z,0
2018-03-04T01:17:20.872Z,0
2018-03-04T01:18:35.027Z,0
2018-03-04T01:19:49.396Z,0
2018-03-04T01:21:03.536Z,0
2018-03-04T01:22:18.426Z,0
2018-03-04T01:23:32.908Z,0
2018-03-04T01:24:47.064Z,0
2018-03-04T01:26:01.262Z,0
2018-03-04T01:27:15.340Z,0
2018-03-04T01:28:29.565Z,0
2018-03-04T01:29:44.208Z,0
2018-03-04T01:30:58.861Z,0
2018-03-04T01:32:13.030Z,0
2018-03-04T01:33:27.581Z,0
2018-03-04T01:34:41.949Z,0
2018-03-04T01:35:56.390Z,0
2018-03-04T01:37:11.132Z,0
2018-03-04T01:38:25.489Z,0
2018-03-04T01:39:39.311Z,0
2018-03-04T01:40:53.937Z,0
2018-03-04T01:42:07.870Z,0
2018-03-04T01:43:21.852Z,0
2018-03-04T01:44:35.177Z,0
2018-03-04T01:45:50.024Z,0
2018-03-04T01:47:04.856Z,0
2018-03-04T01:48:19.300Z,0
2018-03-04T01:49:33.367Z,0
2018-03-04T01:50:47.661Z,0
2018-03-04T01:52:01.972Z,0
2018-03-04T01:53:16.567Z,0
2018-03-04T01:54:31.037Z,0
2018-03-04T01:55:45.408Z,0
2018-03-04T01:56:59.475Z,0
2018-03-04T01:58:14.039Z,0
2018-03-04T01:59:28.985Z,0
2018-03-04T02:00:43.269Z,0
2018-03-04T02:01:57.908Z,0
2018-03-04T02:03:12.191Z,0
2018-03-04T02:04:26.234Z,0
2018-03-04T02:05:40.804Z,0
2018-03-04T02:06:54.872Z,0
2018-03-04T02:08:09.150Z,0
2018-03-04T02:09:23.433Z,0
2018-03-04T02:10:51.860Z,0
2018-03-04T02:12:06.168Z,0
2018-03-04T02:13:20.501Z,0
2018-03-04T02:14:35.098Z,0
2018-03-04T02:15:48.889Z,0
2018-03-04T02:17:03.193Z,0
2018-03-04T02:18:17.282Z,0
2018-03-04T02:19:31.251Z,0
2018-03-04T02:20:46.007Z,0
2018-03-04T02:22:00.459Z,0
2018-03-04T02:23:14.523Z,0
2018-03-04T02:24:28.668Z,0
2018-03-04T02:25:43.836Z,0
2018-03-04T02:26:58.416Z,0
2018-03-04T02:28:12.671Z,0
2018-03-04T02:29:26.541Z,0
2018-03-04T02:30:40.906Z,0
2018-03-04T02:31:55.898Z,0
2018-03-04T02:33:10.694Z,0
2018-03-04T02:34:24.759Z,0
2018-03-04T02:35:39.085Z,0
2018-03-04T02:36:53.464Z,0
2018-03-04T02:38:07.905Z,0
2018-03-04T02:39:21.945Z,0
2018-03-04T02:40:36.258Z,0
2018-03-04T02:41:49.875Z,0
2018-03-04T02:43:04.241Z,0
2018-03-04T02:44:18.045Z,0
2018-03-04T02:45:32.097Z,0
2018-03-04T02:46:46.306Z,0
2018-03-04T02:48:00.586Z,0
2018-03-04T02:49:15.681Z,0
2018-03-04T02:50:30.148Z,0
2018-03-04T02:51:44.734Z,0
2018-03-04T02:52:59.602Z,0
2018-03-04T02:54:13.470Z,0
2018-03-04T02:55:28.593Z,0
2018-03-04T02:56:43.179Z,0
2018-03-04T02:57:57.406Z,0
2018-03-04T02:59:11.882Z,0
2018-03-04T03:00:26.473Z,0
2018-03-04T03:01:41.357Z,0
2018-03-04T03:02:55.892Z,0
2018-03-04T03:04:09.868Z,0
2018-03-04T03:05:23.516Z,0
2018-03-04T03:06:37.694Z,0
2018-03-04T03:07:51.831Z,0
2018-03-04T03:09:06.118Z,0
2018-03-04T03:10:20.826Z,0
2018-03-04T03:11:35.398Z,0
2018-03-04T03:12:49.541Z,0
2018-03-04T03:14:04.725Z,0
2018-03-04T03:15:18.778Z,0
2018-03-04T03:16:32.466Z,0
2018-03-04T03:17:46.548Z,0
2018-03-04T03:19:00.591Z,0
2018-03-04T03:20:15.526Z,0
2018-03-04T03:21:29.055Z,0
2018-03-04T03:22:43.368Z,0
2018-03-04T03:23:57.503Z,0
2018-03-04T03:25:11.561Z,0
2018-03-04T03:26:26.182Z,0
2018-03-04T03:27:40.243Z,0
2018-03-04T03:28:54.531Z,0
2018-03-04T03:30:08.381Z,0
2018-03-04T03:31:22.186Z,0
2018-03-04T03:32:36.568Z,0
2018-03-04T03:33:51.609Z,0
2018-03-04T03:35:06.389Z,0
2018-03-04T03:36:20.929Z,0
2018-03-04T03:37:35.000Z,0
2018-03-04T03:38:49.746Z,0
2018-03-04T03:40:04.513Z,0
2018-03-04T03:41:18.815Z,0
2018-03-04T03:42:33.326Z,0
2018-03-04T03:43:47.373Z,0
2018-03-04T03:45:01.492Z,0
2018-03-04T03:46:15.872Z,0
2018-03-04T03:47:29.889Z,0
2018-03-04T03:48:44.464Z,0
2018-03-04T03:49:59.215Z,0
2018-03-04T03:51:14.135Z,0
2018-03-04T03:52:28.694Z,0
2018-03-04T03:53:42.985Z,0
2018-03-04T03:54:57.030Z,0
2018-03-04T03:56:11.585Z,0
2018-03-04T03:57:40.753Z,0
2018-03-04T03:58:55.590Z,0
2018-03-04T04:00:09.948Z,0
2018-03-04T04:01:24.274Z,0
2018-03-04T04:02:38.876Z,0
2018-03-04T04:03:53.588Z,0
2018-03-04T04:05:07.847Z,0
2018-03-04T04:06:22.180Z,0
2018-03-04T04:07:36.791Z,0
2018-03-04T04:08:50.882Z,0
2018-03-04T04:10:05.108Z,0
2018-03-04T04:11:19.792Z,0
2018-03-04T04:12:33.655Z,0
2018-03-04T04:13:48.264Z,0
2018-03-04T04:15:01.843Z,0
2018-03-04T04:16:16.276Z,0
2018-03-04T04:17:30.604Z,0
2018-03-04T04:18:44.897Z,0
2018-03-04T04:19:59.224Z,0
2018-03-04T04:21:13.995Z,0
2018-03-04T04:22:43.239Z,0
2018-03-04T04:23:57.672Z,0
2018-03-04T04:25:12.247Z,0
2018-03-04T04:26:26.049Z,0
2018-03-04T04:27:40.827Z,0
2018-03-04T04:28:55.635Z,0
2018-03-04T04:30:10.405Z,0
2018-03-04T04:31:24.659Z,0
2018-03-04T04:32:38.964Z,0
2018-03-04T04:33:53.063Z,0
2018-03-04T04:35:06.956Z,0
2018-03-04T04:36:21.529Z,0
2018-03-04T04:37:35.618Z,0
2018-03-04T04:38:49.589Z,0
2018-03-04T04:40:18.804Z,0
2018-03-04T04:41:33.718Z,0
2018-03-04T04:42:48.142Z,0
2018-03-04T04:44:02.541Z,0
2018-03-04T04:45:16.379Z,0
2018-03-04T04:46:30.716Z,0
2018-03-04T04:47:45.571Z,0
2018-03-04T04:48:59.925Z,0
2018-03-04T04:50:14.465Z,0
2018-03-04T04:51:28.334Z,0
2018-03-04T04:52:42.478Z,0
2018-03-04T04:53:57.471Z,0
2018-03-04T04:55:12.112Z,0
2018-03-04T04:56:26.262Z,0
2018-03-04T04:57:40.583Z,0
2018-03-04T04:58:54.922Z,0
2018-03-04T05:00:09.568Z,0
2018-03-04T05:01:23.761Z,0
2018-03-04T05:02:37.880Z,0
2018-03-04T05:03:51.504Z,0
2018-03-04T05:05:05.573Z,0
2018-03-04T05:06:19.730Z,0
2018-03-04T05:07:33.765Z,0
2018-03-04T05:08:47.819Z,0
2018-03-04T05:10:01.742Z,0
2018-03-04T05:11:16.098Z,0
2018-03-04T05:12:29.996Z,0
2018-03-04T05:13:44.348Z,0
2018-03-04T05:14:58.163Z,0
2018-03-04T05:16:13.016Z,0
2018-03-04T05:17:26.968Z,0
2018-03-04T05:18:41.353Z,0
2018-03-04T05:19:55.226Z,0
2018-03-04T05:21:09.539Z,0
2018-03-04T05:22:23.427Z,0
2018-03-04T05:23:37.473Z,0
2018-03-04T05:24:52.118Z,0
2018-03-04T05:26:06.410Z,0
2018-03-04T05:27:19.994Z,0
2018-03-04T05:28:34.657Z,0
2018-03-04T05:29:48.982Z,0
2018-03-04T05:31:03.344Z,0
2018-03-04T05:32:16.999Z,0
2018-03-04T05:33:31.824Z,0
2018-03-04T05:34:46.633Z,0
2018-03-04T05:36:00.729Z,0
2018-03-04T05:37:14.609Z,0
2018-03-04T05:38:28.876Z,0
2018-03-04T05:39:43.439Z,0
2018-03-04T05:41:12.625Z,0
2018-03-04T05:42:27.221Z,0
2018-03-04T05:43:41.983Z,0
2018-03-04T05:44:56.560Z,4
2018-03-04T05:46:10.828Z,4
2018-03-04T05:47:24.634Z,0
2018-03-04T05:48:39.056Z,4
2018-03-04T05:49:53.483Z,4
2018-03-04T05:51:08.018Z,8
2018-03-04T05:52:22.653Z,8
2018-03-04T05:53:36.964Z,8
2018-03-04T05:54:51.108Z,8
2018-03-04T05:56:04.940Z,12
2018-03-04T05:57:19.057Z,12
2018-03-04T05:58:33.456Z,16
2018-03-04T05:59:47.563Z,16
2018-03-04T06:01:02.239Z,20
2018-03-04T06:02:16.585Z,20
2018-03-04T06:03:30.540Z,20
2018-03-04T06:04:59.768Z,24
2018-03-04T06:06:14.619Z,28
2018-03-04T06:07:28.993Z,32
2018-03-04T06:08:43.448Z,36
2018-03-04T06:09:57.534Z,44
2018-03-04T06:11:12.135Z,48
2018-03-04T06:12:26.478Z,56
2018-03-04T06:13:41.659Z,60
2018-03-04T06:14:56.014Z,68
2018-03-04T06:16:09.518Z,72
2018-03-04T06:17:23.639Z,80
2018-03-04T06:18:37.216Z,84
2018-03-04T06:19:51.961Z,84
2018-03-04T06:21:06.420Z,88
2018-03-04T06:22:20.937Z,92
2018-03-04T06:23:34.828Z,96
2018-03-04T06:24:49.223Z,96
2018-03-04T06:26:04.113Z,104
2018-03-04T06:27:18.206Z,120
2018-03-04T06:28:32.322Z,136
2018-03-04T06:29:46.829Z,140
2018-03-04T06:31:01.216Z,148
2018-03-04T06:32:15.808Z,172
2018-03-04T06:33:30.736Z,192
2018-03-04T06:34:44.467Z,204
2018-03-04T06:35:58.802Z,208
2018-03-04T06:37:12.928Z,216
2018-03-04T06:38:27.614Z,216
2018-03-04T06:39:42.155Z,224
2018-03-04T06:40:56.665Z,236
2018-03-04T06:42:10.965Z,244
2018-03-04T06:43:25.677Z,244
2018-03-04T06:44:40.639Z,220
2018-03-04T06:45:55.208Z,192
2018-03-04T06:47:09.413Z,192
2018-03-04T06:48:23.301Z,200
2018-03-04T06:49:37.386Z,224
2018-03-04T06:50:52.524Z,236
2018-03-04T06:52:06.810Z,264
2018-03-04T06:53:21.366Z,268
2018-03-04T06:54:35.208Z,268
2018-03-04T06:55:49.654Z,296
2018-03-04T06:57:03.574Z,332
2018-03-04T06:58:17.407Z,396
2018-03-04T06:59:31.507Z,396
2018-03-04T07:00:46.123Z,364
2018-03-04T07:02:00.453Z,316
2018-03-04T07:03:15.511Z,348
2018-03-04T07:04:29.352Z,356
2018-03-04T07:05:43.492Z,384
2018-03-04T07:06:58.071Z,448
2018-03-04T07:08:12.162Z,508
2018-03-04T07:09:26.332Z,532
2018-03-04T07:10:40.201Z,496
2018-03-04T07:11:54.568Z,484
2018-03-04T07:13:09.030Z,480
2018-03-04T07:14:23.424Z,504
2018-03-04T07:15:37.647Z,536
2018-03-04T07:16:52.029Z,544
2018-03-04T07:18:07.087Z,584
2018-03-04T07:19:21.453Z,608
2018-03-04T07:20:35.363Z,596
2018-03-04T07:21:49.761Z,588
2018-03-04T07:23:03.621Z,624
2018-03-04T07:24:18.242Z,612
2018-03-04T07:25:32.171Z,628
2018-03-04T07:26:46.020Z,648
2018-03-04T07:28:00.414Z,688
2018-03-04T07:29:14.838Z,716
2018-03-04T07:30:29.431Z,720
2018-03-04T07:31:43.795Z,792
2018-03-04T07:32:57.358Z,748
2018-03-04T07:34:12.354Z,728
2018-03-04T07:35:26.662Z,760
2018-03-04T07:36:40.717Z,732
2018-03-04T07:37:54.830Z,704
2018-03-04T07:39:08.631Z,692
2018-03-04T07:40:22.778Z,612
2018-03-04T07:41:36.937Z,680
2018-03-04T07:42:51.766Z,744
2018-03-04T07:44:06.402Z,768
2018-03-04T07:45:20.516Z,800
2018-03-04T07:46:35.386Z,848
2018-03-04T07:47:49.566Z,860
2018-03-04T07:49:03.553Z,864
2018-03-04T07:50:17.905Z,868
2018-03-04T07:51:32.496Z,884
2018-03-04T07:52:46.685Z,844
2018-03-04T07:54:01.679Z,796
2018-03-04T07:55:16.268Z,768
2018-03-04T07:56:30.330Z,788
2018-03-04T07:57:44.422Z,788
2018-03-04T07:58:59.053Z,808
2018-03-04T08:00:12.734Z,888
2018-03-04T08:01:26.804Z,976
2018-03-04T08:02:41.260Z,992
2018-03-04T08:03:55.419Z,1008
2018-03-04T08:05:10.093Z,1028
2018-03-04T08:06:24.054Z,1052
2018-03-04T08:07:37.904Z,1060
2018-03-04T08:08:52.064Z,1240
2018-03-04T08:10:06.148Z,1124
2018-03-04T08:11:20.795Z,1132
2018-03-04T08:12:35.614Z,1184
2018-03-04T08:13:49.539Z,1152
2018-03-04T08:15:03.643Z,1144
2018-03-04T08:16:18.326Z,1252
2018-03-04T08:17:32.727Z,1324
2018-03-04T08:18:47.182Z,1288
2018-03-04T08:20:01.849Z,996
2018-03-04T08:21:15.747Z,720
2018-03-04T08:22:30.072Z,668
2018-03-04T08:23:44.479Z,760
2018-03-04T08:24:59.208Z,872
2018-03-04T08:26:13.880Z,984
2018-03-04T08:27:28.223Z,1012
2018-03-04T08:28:42.386Z,1160
2018-03-04T08:29:57.274Z,1716
2018-03-04T08:31:11.137Z,1912
2018-03-04T08:32:25.236Z,1720
2018-03-04T08:33:39.111Z,2124
2018-03-04T08:34:53.201Z,2320
2018-03-04T08:36:07.461Z,2512
2018-03-04T08:37:21.525Z,2532
2018-03-04T08:38:35.611Z,2376
2018-03-04T08:39:49.576Z,2164
2018-03-04T08:41:04.145Z,2132
2018-03-04T08:42:19.066Z,2092
2018-03-04T08:43:33.107Z,2028
2018-03-04T08:44:47.369Z,2092
2018-03-04T08:46:02.036Z,2168
2018-03-04T08:47:16.596Z,2100
2018-03-04T08:48:31.681Z,2108
2018-03-04T08:49:46.381Z,2108
2018-03-04T08:51:00.568Z,2088
2018-03-04T08:52:14.663Z,2152
2018-03-04T08:53:28.727Z,2400
2018-03-04T08:54:43.326Z,2452
2018-03-04T08:55:57.384Z,2544
2018-03-04T08:57:11.584Z,2572
2018-03-04T08:58:25.746Z,2568
2018-03-04T08:59:40.306Z,1976
2018-03-04T09:00:54.159Z,2556
2018-03-04T09:02:08.716Z,2568
2018-03-04T09:03:22.966Z,2592
2018-03-04T09:04:37.529Z,2852
2018-03-04T09:05:51.832Z,2964
2018-03-04T09:07:06.473Z,2852
2018-03-04T09:08:20.814Z,2620
2018-03-04T09:09:35.205Z,2652
2018-03-04T09:10:49.649Z,3092
2018-03-04T09:12:03.698Z,3108
2018-03-04T09:13:18.309Z,2924
2018-03-04T09:14:32.398Z,3068
2018-03-04T09:15:46.863Z,3000
2018-03-04T09:17:01.711Z,2696
2018-03-04T09:18:16.381Z,2412
2018-03-04T09:19:30.541Z,2208
2018-03-04T09:20:44.876Z,2168
2018-03-04T09:21:59.228Z,2108
2018-03-04T09:23:13.781Z,2144
2018-03-04T09:24:27.921Z,2244
2018-03-04T09:25:42.707Z,2412
2018-03-04T09:26:56.856Z,2668
2018-03-04T09:28:10.724Z,2832
2018-03-04T09:29:24.859Z,2728
2018-03-04T09:30:38.948Z,2576
2018-03-04T09:31:52.922Z,2464
2018-03-04T09:33:06.809Z,2420
2018-03-04T09:34:21.631Z,2440
2018-03-04T09:35:35.791Z,2492
2018-03-04T09:36:49.691Z,2608
2018-03-04T09:38:04.411Z,2760
2018-03-04T09:39:18.228Z,2928
2018-03-04T09:40:32.780Z,3044
2018-03-04T09:41:46.533Z,3068
2018-03-04T09:43:01.104Z,3032
2018-03-04T09:44:15.797Z,3040
2018-03-04T09:45:29.365Z,3036
2018-03-04T09:46:43.734Z,3112
2018-03-04T09:47:58.455Z,3264
2018-03-04T09:49:13.136Z,3480
2018-03-04T09:50:27.311Z,3808
2018-03-04T09:51:41.406Z,4412
2018-03-04T09:52:55.216Z,4940
2018-03-04T09:54:08.802Z,4624
2018-03-04T09:55:23.623Z,5036
2018-03-04T09:56:38.110Z,5404
2018-03-04T09:57:52.688Z,5212
2018-03-04T09:59:07.243Z,5068
2018-03-04T10:00:21.305Z,4528
2018-03-04T10:01:34.873Z,4348
2018-03-04T10:02:49.715Z,4520
2018-03-04T10:04:03.500Z,4424
2018-03-04T10:05:18.089Z,3832
2018-03-04T10:06:32.187Z,3820
2018-03-04T10:07:46.742Z,3564
2018-03-04T10:09:00.628Z,3608
2018-03-04T10:10:14.900Z,3420
2018-03-04T10:11:29.504Z,3552
2018-03-04T10:12:43.589Z,3548
2018-03-04T10:13:57.935Z,3344
2018-03-04T10:15:12.621Z,3280
2018-03-04T10:16:27.286Z,3520
2018-03-04T10:17:40.661Z,3720
2018-03-04T10:18:54.718Z,3712
2018-03-04T10:20:09.376Z,3572
2018-03-04T10:21:24.092Z,3428
2018-03-04T10:22:38.635Z,3284
2018-03-04T10:23:52.961Z,3080
2018-03-04T10:25:06.985Z,2796
2018-03-04T10:26:21.354Z,2612
2018-03-04T10:27:35.707Z,2220
2018-03-04T10:28:49.557Z,2064
2018-03-04T10:30:04.148Z,2172
2018-03-04T10:31:18.512Z,2384
2018-03-04T10:32:32.806Z,2668
2018-03-04T10:33:47.722Z,3044
2018-03-04T10:35:02.284Z,3364
2018-03-04T10:36:16.605Z,3560
2018-03-04T10:37:30.691Z,3708
2018-03-04T10:38:44.777Z,3848
2018-03-04T10:39:59.484Z,3968
2018-03-04T10:41:13.538Z,4064
2018-03-04T10:42:27.771Z,4204
2018-03-04T10:43:41.833Z,4356
2018-03-04T10:44:56.400Z,4520
2018-03-04T10:46:11.104Z,4504
2018-03-04T10:47:25.669Z,4524
2018-03-04T10:48:39.724Z,4520
2018-03-04T10:49:54.456Z,4692
2018-03-04T10:51:08.560Z,4592
2018-03-04T10:52:22.798Z,4424
2018-03-04T10:53:36.656Z,4124
2018-03-04T10:54:51.324Z,3720
2018-03-04T10:56:05.420Z,3428
2018-03-04T10:57:19.496Z,3080
2018-03-04T10:58:33.644Z,2888
2018-03-04T10:59:47.721Z,2704
2018-03-04T11:01:02.316Z,2548
2018-03-04T11:02:16.104Z,2436
2018-03-04T11:03:29.669Z,2360
2018-03-04T11:04:44.076Z,2296
2018-03-04T11:05:58.479Z,2252
2018-03-04T11:07:13.205Z,2212
2018-03-04T11:08:27.632Z,2180
2018-03-04T11:09:41.734Z,2164
2018-03-04T11:10:56.479Z,2160
2018-03-04T11:12:10.451Z,2148
2018-03-04T11:13:24.853Z,2144
2018-03-04T11:14:38.950Z,2148
2018-03-04T11:15:52.750Z,2132
2018-03-04T11:17:07.120Z,2132
2018-03-04T11:18:21.268Z,2116
2018-03-04T11:19:35.461Z,2116
2018-03-04T11:20:50.041Z,2104
2018-03-04T11:22:04.116Z,2096
2018-03-04T11:23:18.879Z,2084
2018-03-04T11:24:33.444Z,2084
2018-03-04T11:25:48.278Z,2088
2018-03-04T11:27:02.104Z,2092
2018-03-04T11:28:16.193Z,2072
2018-03-04T11:29:30.784Z,2064
2018-03-04T11:30:45.346Z,2044
2018-03-04T11:31:59.053Z,2032
2018-03-04T11:33:12.897Z,2040
2018-03-04T11:34:26.971Z,2036
2018-03-04T11:35:41.349Z,2020
2018-03-04T11:36:55.777Z,2024
2018-03-04T11:38:09.963Z,2040
2018-03-04T11:39:24.439Z,2040
2018-03-04T11:40:37.980Z,2028
2018-03-04T11:41:52.655Z,2012
2018-03-04T11:43:07.022Z,2012
2018-03-04T11:44:20.881Z,2004
2018-03-04T11:45:34.960Z,1988
2018-03-04T11:46:49.258Z,1984
2018-03-04T11:48:04.389Z,1980
2018-03-04T11:49:18.942Z,1976
2018-03-04T11:50:32.760Z,1968
2018-03-04T11:51:47.075Z,1948
2018-03-04T11:53:01.153Z,1940
2018-03-04T11:54:16.049Z,1928
2018-03-04T11:55:30.360Z,1928
2018-03-04T11:56:45.202Z,1936
2018-03-04T11:57:59.960Z,1944
2018-03-04T11:59:14.038Z,1948
2018-03-04T12:00:28.444Z,1956
2018-03-04T12:01:42.548Z,1956
2018-03-04T12:02:56.457Z,1944
2018-03-04T12:04:11.008Z,1932
2018-03-04T12:05:25.598Z,1924
2018-03-04T12:06:40.119Z,1920
2018-03-04T12:07:55.416Z,1900
2018-03-04T12:09:09.684Z,1896
2018-03-04T12:10:23.682Z,1884
2018-03-04T12:11:38.010Z,1880
2018-03-04T12:12:52.043Z,1880
2018-03-04T12:14:06.797Z,1860
2018-03-04T12:15:21.027Z,1664
2018-03-04T12:16:34.880Z,1868
2018-03-04T12:17:49.755Z,1712
2018-03-04T12:19:04.444Z,1676
2018-03-04T12:20:18.842Z,1872
2018-03-04T12:21:33.219Z,1876
2018-03-04T12:22:47.417Z,1852
2018-03-04T12:24:01.616Z,1856
2018-03-04T12:25:16.323Z,1868
2018-03-04T12:26:30.765Z,1856
2018-03-04T12:27:45.134Z,1872
2018-03-04T12:29:00.073Z,1856
2018-03-04T12:30:14.674Z,1848
2018-03-04T12:31:29.406Z,1836
2018-03-04T12:32:43.792Z,1836
2018-03-04T12:33:57.692Z,1844
2018-03-04T12:35:12.259Z,1832
2018-03-04T12:36:27.173Z,1812
2018-03-04T12:37:41.926Z,1816
2018-03-04T12:38:56.116Z,1832
2018-03-04T12:40:11.150Z,1824
2018-03-04T12:41:26.667Z,1812
2018-03-04T12:42:40.864Z,1812
2018-03-04T12:43:54.859Z,1816
2018-03-04T12:45:09.524Z,1816
2018-03-04T12:46:24.212Z,1816
2018-03-04T12:47:38.400Z,1816
2018-03-04T12:48:53.099Z,1796
2018-03-04T12:50:08.093Z,1784
2018-03-04T12:51:22.087Z,1772
2018-03-04T12:52:36.465Z,1764
2018-03-04T12:53:51.187Z,1716
2018-03-04T12:55:05.357Z,1756
2018-03-04T12:56:20.679Z,1756
2018-03-04T12:57:35.304Z,1616
2018-03-04T12:58:49.559Z,1728
2018-03-04T13:00:04.057Z,1756
2018-03-04T13:01:17.739Z,1812
2018-03-04T13:02:31.665Z,1856
2018-03-04T13:03:45.882Z,1916
2018-03-04T13:05:00.280Z,1976
2018-03-04T13:06:15.302Z,2032
2018-03-04T13:07:29.670Z,2076
2018-03-04T13:08:44.083Z,2084
2018-03-04T13:09:58.439Z,2136
2018-03-04T13:11:13.048Z,2184
2018-03-04T13:12:27.582Z,2220
2018-03-04T13:13:41.264Z,2220
2018-03-04T13:14:55.688Z,2196
2018-03-04T13:16:09.592Z,2164
2018-03-04T13:17:23.724Z,2104
2018-03-04T13:18:38.531Z,2040
2018-03-04T13:19:52.425Z,1984
2018-03-04T13:21:06.941Z,1968
2018-03-04T13:22:20.909Z,1944
2018-03-04T13:23:35.661Z,1912
2018-03-04T13:24:50.433Z,1904
2018-03-04T13:26:04.581Z,1892
2018-03-04T13:27:19.035Z,1920
2018-03-04T13:28:33.146Z,1940
2018-03-04T13:29:47.500Z,1988
2018-03-04T13:31:02.521Z,2024
2018-03-04T13:32:16.891Z,2040
2018-03-04T13:33:31.828Z,2036
2018-03-04T13:34:45.945Z,2004
2018-03-04T13:35:59.857Z,1968
2018-03-04T13:37:14.702Z,1940
2018-03-04T13:38:28.803Z,1896
2018-03-04T13:39:43.702Z,1876
2018-03-04T13:40:58.021Z,1808
2018-03-04T13:42:12.418Z,1772
2018-03-04T13:43:26.811Z,1760
2018-03-04T13:44:40.653Z,1768
2018-03-04T13:45:54.606Z,1780
2018-03-04T13:47:09.205Z,1788
2018-03-04T13:48:23.079Z,1852
2018-03-04T13:49:37.623Z,1904
2018-03-04T13:50:51.715Z,1948
2018-03-04T13:52:06.387Z,2064
2018-03-04T13:53:20.740Z,2168
2018-03-04T13:54:35.347Z,2204
2018-03-04T13:55:49.812Z,2272
2018-03-04T13:57:03.456Z,2352
2018-03-04T13:58:18.364Z,2372
2018-03-04T13:59:31.995Z,2392
2018-03-04T14:00:46.141Z,2408
2018-03-04T14:02:00.704Z,2416
2018-03-04T14:03:15.103Z,2424
2018-03-04T14:04:29.492Z,2468
2018-03-04T14:05:43.343Z,2548
2018-03-04T14:06:57.477Z,2600
2018-03-04T14:08:11.861Z,2664
2018-03-04T14:09:26.002Z,2616
2018-03-04T14:10:40.747Z,2592
2018-03-04T14:11:55.317Z,2516
2018-03-04T14:13:09.185Z,2436
2018-03-04T14:14:23.416Z,2420
2018-03-04T14:15:37.695Z,2300
2018-03-04T14:16:52.240Z,2260
2018-03-04T14:18:07.090Z,2116
2018-03-04T14:19:21.447Z,2056
2018-03-04T14:20:35.867Z,2012
2018-03-04T14:21:50.858Z,2060
2018-03-04T14:23:05.769Z,2152
2018-03-04T14:24:20.332Z,2316
2018-03-04T14:25:34.915Z,2312
2018-03-04T14:26:49.395Z,2376
2018-03-04T14:28:04.510Z,2472
2018-03-04T14:29:19.200Z,2600
2018-03-04T14:30:33.428Z,2736
2018-03-04T14:31:47.314Z,2908
2018-03-04T14:33:01.528Z,2864
2018-03-04T14:34:15.631Z,2904
2018-03-04T14:35:30.552Z,3016
2018-03-04T14:36:44.635Z,3064
2018-03-04T14:37:58.740Z,3072
2018-03-04T14:39:13.282Z,3076
2018-03-04T14:40:27.421Z,3064
2018-03-04T14:41:41.838Z,3104
2018-03-04T14:42:55.708Z,3040
2018-03-04T14:44:10.182Z,3036
2018-03-04T14:45:24.362Z,2936
2018-03-04T14:46:38.747Z,2756
2018-03-04T14:47:53.605Z,2584
2018-03-04T14:49:07.995Z,2548
2018-03-04T14:50:22.073Z,2504
2018-03-04T14:51:36.708Z,2456
2018-03-04T14:52:51.546Z,2456
2018-03-04T14:54:05.747Z,2412
2018-03-04T14:55:20.418Z,2388
2018-03-04T14:56:35.051Z,2472
2018-03-04T14:57:49.817Z,2624
2018-03-04T14:59:04.477Z,2652
2018-03-04T15:00:18.711Z,2620
2018-03-04T15:01:32.877Z,2492
2018-03-04T15:02:47.252Z,2436
2018-03-04T15:04:01.369Z,2456
2018-03-04T15:05:15.537Z,2376
2018-03-04T15:06:30.080Z,2244
2018-03-04T15:07:44.280Z,2164
2018-03-04T15:08:58.924Z,2120
2018-03-04T15:10:13.298Z,2096
2018-03-04T15:11:27.161Z,2040
2018-03-04T15:12:42.467Z,1984
2018-03-04T15:13:56.632Z,1920
2018-03-04T15:15:10.986Z,1852
2018-03-04T15:16:25.262Z,1804
2018-03-04T15:17:40.400Z,1780
2018-03-04T15:18:54.799Z,1744
2018-03-04T15:20:08.652Z,1684
2018-03-04T15:21:23.272Z,1640
2018-03-04T15:22:37.281Z,1632
2018-03-04T15:23:51.685Z,1644
2018-03-04T15:25:06.624Z,1704
2018-03-04T15:26:20.763Z,1756
2018-03-04T15:27:35.494Z,1716
2018-03-04T15:28:48.960Z,1644
2018-03-04T15:30:03.162Z,1580
2018-03-04T15:31:17.368Z,1572
2018-03-04T15:32:31.248Z,1652
2018-03-04T15:33:46.132Z,1884
2018-03-04T15:35:00.492Z,1968
2018-03-04T15:36:14.605Z,1952
2018-03-04T15:37:29.001Z,1876
2018-03-04T15:38:42.953Z,1768
2018-03-04T15:39:57.354Z,1676
2018-03-04T15:41:11.724Z,1616
2018-03-04T15:42:26.100Z,1616
2018-03-04T15:43:41.022Z,1652
2018-03-04T15:44:55.427Z,1668
2018-03-04T15:46:09.341Z,1640
2018-03-04T15:47:23.951Z,1584
2018-03-04T15:48:38.406Z,1484
2018-03-04T15:49:53.501Z,1384
2018-03-04T15:51:07.445Z,1300
2018-03-04T15:52:21.605Z,1224
2018-03-04T15:53:35.959Z,1156
2018-03-04T15:54:50.097Z,1072
2018-03-04T15:56:04.131Z,988
2018-03-04T15:57:18.530Z,932
2018-03-04T15:58:32.908Z,868
2018-03-04T15:59:47.777Z,824
2018-03-04T16:01:01.901Z,796
2018-03-04T16:02:16.163Z,764
2018-03-04T16:03:29.764Z,732
2018-03-04T16:04:43.839Z,744
2018-03-04T16:05:58.722Z,760
2018-03-04T16:07:13.093Z,720
2018-03-04T16:08:27.496Z,648
2018-03-04T16:09:41.379Z,576
2018-03-04T16:10:55.463Z,532
2018-03-04T16:12:09.694Z,512
2018-03-04T16:13:23.506Z,476
2018-03-04T16:14:37.945Z,444
2018-03-04T16:15:52.539Z,424
2018-03-04T16:17:06.897Z,416
2018-03-04T16:18:21.265Z,412
2018-03-04T16:19:36.106Z,416
2018-03-04T16:20:51.293Z,420
2018-03-04T16:22:05.614Z,416
2018-03-04T16:23:19.765Z,408
2018-03-04T16:24:34.220Z,388
2018-03-04T16:25:48.142Z,364
2018-03-04T16:27:02.489Z,332
2018-03-04T16:28:16.046Z,304
2018-03-04T16:29:29.863Z,288
2018-03-04T16:30:43.765Z,276
2018-03-04T16:31:58.075Z,268
2018-03-04T16:33:13.304Z,256
2018-03-04T16:34:27.856Z,240
2018-03-04T16:35:41.700Z,228
2018-03-04T16:36:56.429Z,220
2018-03-04T16:38:10.938Z,212
2018-03-04T16:39:25.386Z,204
2018-03-04T16:40:39.438Z,188
2018-03-04T16:41:53.750Z,176
2018-03-04T16:43:08.075Z,156
2018-03-04T16:44:22.279Z,140
2018-03-04T16:45:36.641Z,128
2018-03-04T16:46:51.379Z,116
2018-03-04T16:48:05.679Z,104
2018-03-04T16:49:19.993Z,92
2018-03-04T16:50:33.807Z,84
2018-03-04T16:51:48.652Z,76
2018-03-04T16:53:02.497Z,68
2018-03-04T16:54:16.312Z,64
2018-03-04T16:55:30.371Z,56
2018-03-04T16:56:44.531Z,52
2018-03-04T16:57:59.181Z,52
2018-03-04T16:59:12.978Z,48
2018-03-04T17:00:27.694Z,52
2018-03-04T17:01:42.024Z,48
2018-03-04T17:02:56.388Z,44
2018-03-04T17:04:10.768Z,44
2018-03-04T17:05:24.570Z,40
2018-03-04T17:06:38.705Z,36
2018-03-04T17:07:52.542Z,36
2018-03-04T17:09:06.939Z,32
2018-03-04T17:10:21.334Z,36
2018-03-04T17:11:35.400Z,32
2018-03-04T17:12:49.731Z,28
2018-03-04T17:14:04.588Z,28
2018-03-04T17:15:18.694Z,24
2018-03-04T17:16:33.584Z,20
2018-03-04T17:17:47.882Z,20